sensor_id;sensor_type;location;lat;lon;timestamp;P1;durP1;ratioP1;P2;durP2;ratioP2
66380;SDS011;53177;52.648;1.214;2023-12-14T00:01:44;9.27;;;1.40;;
66380;SDS011;53177;52.648;1.214;2023-12-14T00:04:11;9.35;;;1.65;;
66380;SDS011;53177;52.648;1.214;2023-12-14T00:06:37;9.50;;;1.50;;
66380;SDS011;53177;52.648;1.214;2023-12-14T00:09:03;11.25;;;1.85;;
66380;SDS011;53177;52.648;1.214;2023-12-14T00:11:28;5.80;;;1.10;;
66380;SDS011;53177;52.648;1.214;2023-12-14T00:13:54;9.40;;;1.53;;
66380;SDS011;53177;52.648;1.214;2023-12-14T00:16:19;11.97;;;1.70;;
66380;SDS011;53177;52.648;1.214;2023-12-14T00:18:44;9.17;;;1.70;;
66380;SDS011;53177;52.648;1.214;2023-12-14T00:21:10;7.83;;;1.70;;
66380;SDS011;53177;52.648;1.214;2023-12-14T00:23:35;7.50;;;1.30;;
66380;SDS011;53177;52.648;1.214;2023-12-14T00:26:00;8.70;;;1.70;;
66380;SDS011;53177;52.648;1.214;2023-12-14T00:28:26;9.83;;;1.60;;
66380;SDS011;53177;52.648;1.214;2023-12-14T00:30:51;7.97;;;1.50;;
66380;SDS011;53177;52.648;1.214;2023-12-14T00:33:16;13.57;;;1.60;;
66380;SDS011;53177;52.648;1.214;2023-12-14T00:35:42;8.47;;;1.63;;
66380;SDS011;53177;52.648;1.214;2023-12-14T00:38:07;6.23;;;1.10;;
66380;SDS011;53177;52.648;1.214;2023-12-14T00:40:33;4.57;;;1.23;;
66380;SDS011;53177;52.648;1.214;2023-12-14T00:42:59;7.75;;;1.48;;
66380;SDS011;53177;52.648;1.214;2023-12-14T00:45:24;5.83;;;1.23;;
66380;SDS011;53177;52.648;1.214;2023-12-14T00:47:50;11.33;;;1.30;;
66380;SDS011;53177;52.648;1.214;2023-12-14T00:50:16;8.40;;;1.17;;
66380;SDS011;53177;52.648;1.214;2023-12-14T00:52:41;5.75;;;1.45;;
66380;SDS011;53177;52.648;1.214;2023-12-14T00:55:07;9.43;;;1.20;;
66380;SDS011;53177;52.648;1.214;2023-12-14T00:57:32;9.57;;;1.48;;
66380;SDS011;53177;52.648;1.214;2023-12-14T00:59:58;6.67;;;1.10;;
66380;SDS011;53177;52.648;1.214;2023-12-14T01:02:23;6.53;;;0.93;;
66380;SDS011;53177;52.648;1.214;2023-12-14T01:04:48;12.13;;;1.27;;
66380;SDS011;53177;52.648;1.214;2023-12-14T01:07:14;7.53;;;1.20;;
66380;SDS011;53177;52.648;1.214;2023-12-14T01:09:39;7.37;;;1.20;;
66380;SDS011;53177;52.648;1.214;2023-12-14T01:12:04;6.97;;;1.00;;
66380;SDS011;53177;52.648;1.214;2023-12-14T01:14:30;6.63;;;1.07;;
66380;SDS011;53177;52.648;1.214;2023-12-14T01:16:55;6.07;;;1.20;;
66380;SDS011;53177;52.648;1.214;2023-12-14T01:19:20;6.57;;;1.23;;
66380;SDS011;53177;52.648;1.214;2023-12-14T01:21:46;4.57;;;0.93;;
66380;SDS011;53177;52.648;1.214;2023-12-14T01:24:11;6.23;;;0.93;;
66380;SDS011;53177;52.648;1.214;2023-12-14T01:26:36;6.17;;;1.00;;
66380;SDS011;53177;52.648;1.214;2023-12-14T01:29:02;4.43;;;1.03;;
66380;SDS011;53177;52.648;1.214;2023-12-14T01:31:27;5.47;;;1.07;;
66380;SDS011;53177;52.648;1.214;2023-12-14T01:33:52;8.70;;;1.10;;
66380;SDS011;53177;52.648;1.214;2023-12-14T01:36:24;6.68;;;1.10;;
66380;SDS011;53177;52.648;1.214;2023-12-14T01:38:51;4.87;;;1.00;;
66380;SDS011;53177;52.648;1.214;2023-12-14T01:41:17;6.22;;;1.00;;
66380;SDS011;53177;52.648;1.214;2023-12-14T01:43:43;7.15;;;1.17;;
66380;SDS011;53177;52.648;1.214;2023-12-14T01:46:09;6.73;;;1.00;;
66380;SDS011;53177;52.648;1.214;2023-12-14T01:48:34;4.75;;;0.90;;
66380;SDS011;53177;52.648;1.214;2023-12-14T01:51:00;6.20;;;1.20;;
66380;SDS011;53177;52.648;1.214;2023-12-14T01:53:26;6.28;;;1.20;;
66380;SDS011;53177;52.648;1.214;2023-12-14T01:55:51;8.70;;;1.15;;
66380;SDS011;53177;52.648;1.214;2023-12-14T01:58:17;7.40;;;1.13;;
66380;SDS011;53177;52.648;1.214;2023-12-14T02:00:47;4.57;;;0.80;;
66380;SDS011;53177;52.648;1.214;2023-12-14T02:03:19;5.60;;;1.00;;
66380;SDS011;53177;52.648;1.214;2023-12-14T02:05:45;4.35;;;1.05;;
66380;SDS011;53177;52.648;1.214;2023-12-14T02:08:11;5.50;;;0.97;;
66380;SDS011;53177;52.648;1.214;2023-12-14T02:10:36;6.43;;;1.33;;
66380;SDS011;53177;52.648;1.214;2023-12-14T02:13:02;7.40;;;1.20;;
66380;SDS011;53177;52.648;1.214;2023-12-14T02:15:28;8.57;;;1.17;;
66380;SDS011;53177;52.648;1.214;2023-12-14T02:17:53;8.13;;;1.30;;
66380;SDS011;53177;52.648;1.214;2023-12-14T02:20:19;6.53;;;1.20;;
66380;SDS011;53177;52.648;1.214;2023-12-14T02:22:48;10.25;;;1.10;;
66380;SDS011;53177;52.648;1.214;2023-12-14T02:25:17;6.43;;;1.00;;
66380;SDS011;53177;52.648;1.214;2023-12-14T02:27:47;6.87;;;1.23;;
66380;SDS011;53177;52.648;1.214;2023-12-14T02:30:13;4.82;;;1.02;;
66380;SDS011;53177;52.648;1.214;2023-12-14T02:32:40;4.55;;;1.00;;
66380;SDS011;53177;52.648;1.214;2023-12-14T02:35:06;4.17;;;0.80;;
66380;SDS011;53177;52.648;1.214;2023-12-14T02:37:32;8.82;;;1.10;;
66380;SDS011;53177;52.648;1.214;2023-12-14T02:39:58;7.55;;;1.08;;
66380;SDS011;53177;52.648;1.214;2023-12-14T02:42:25;7.97;;;1.10;;
66380;SDS011;53177;52.648;1.214;2023-12-14T02:44:50;7.60;;;1.20;;
66380;SDS011;53177;52.648;1.214;2023-12-14T02:47:16;5.73;;;0.93;;
66380;SDS011;53177;52.648;1.214;2023-12-14T02:49:42;5.27;;;1.00;;
66380;SDS011;53177;52.648;1.214;2023-12-14T02:52:08;4.45;;;1.00;;
66380;SDS011;53177;52.648;1.214;2023-12-14T02:54:34;4.83;;;0.90;;
66380;SDS011;53177;52.648;1.214;2023-12-14T02:56:59;7.50;;;1.20;;
66380;SDS011;53177;52.648;1.214;2023-12-14T02:59:25;8.27;;;1.23;;
66380;SDS011;53177;52.648;1.214;2023-12-14T03:01:50;6.78;;;1.20;;
66380;SDS011;53177;52.648;1.214;2023-12-14T03:04:15;5.20;;;1.03;;
66380;SDS011;53177;52.648;1.214;2023-12-14T03:06:41;5.40;;;0.90;;
66380;SDS011;53177;52.648;1.214;2023-12-14T03:09:06;7.50;;;1.17;;
66380;SDS011;53177;52.648;1.214;2023-12-14T03:11:31;7.03;;;1.00;;
66380;SDS011;53177;52.648;1.214;2023-12-14T03:13:57;6.87;;;1.33;;
66380;SDS011;53177;52.648;1.214;2023-12-14T03:16:22;7.28;;;0.82;;
66380;SDS011;53177;52.648;1.214;2023-12-14T03:18:47;5.95;;;1.20;;
66380;SDS011;53177;52.648;1.214;2023-12-14T03:21:17;6.27;;;1.20;;
66380;SDS011;53177;52.648;1.214;2023-12-14T03:23:42;6.55;;;1.23;;
66380;SDS011;53177;52.648;1.214;2023-12-14T03:26:08;7.83;;;1.30;;
66380;SDS011;53177;52.648;1.214;2023-12-14T03:28:33;7.40;;;1.20;;
66380;SDS011;53177;52.648;1.214;2023-12-14T03:30:59;8.13;;;1.50;;
66380;SDS011;53177;52.648;1.214;2023-12-14T03:33:25;6.90;;;1.50;;
66380;SDS011;53177;52.648;1.214;2023-12-14T03:35:50;7.17;;;1.50;;
66380;SDS011;53177;52.648;1.214;2023-12-14T03:38:15;10.63;;;1.80;;
66380;SDS011;53177;52.648;1.214;2023-12-14T03:40:41;11.13;;;2.40;;
66380;SDS011;53177;52.648;1.214;2023-12-14T03:43:06;10.27;;;1.60;;
66380;SDS011;53177;52.648;1.214;2023-12-14T03:45:31;7.17;;;1.70;;
66380;SDS011;53177;52.648;1.214;2023-12-14T03:47:57;12.67;;;2.03;;
66380;SDS011;53177;52.648;1.214;2023-12-14T03:50:23;5.50;;;1.70;;
66380;SDS011;53177;52.648;1.214;2023-12-14T03:52:49;10.43;;;1.80;;
66380;SDS011;53177;52.648;1.214;2023-12-14T03:55:14;9.80;;;2.20;;
66380;SDS011;53177;52.648;1.214;2023-12-14T03:57:40;10.83;;;1.97;;
66380;SDS011;53177;52.648;1.214;2023-12-14T04:00:07;8.80;;;2.05;;
66380;SDS011;53177;52.648;1.214;2023-12-14T04:02:37;10.80;;;2.38;;
66380;SDS011;53177;52.648;1.214;2023-12-14T04:05:03;9.80;;;2.33;;
66380;SDS011;53177;52.648;1.214;2023-12-14T04:07:29;10.15;;;2.63;;
66380;SDS011;53177;52.648;1.214;2023-12-14T04:09:54;9.50;;;2.57;;
66380;SDS011;53177;52.648;1.214;2023-12-14T04:12:20;9.17;;;2.73;;
66380;SDS011;53177;52.648;1.214;2023-12-14T04:14:45;9.25;;;2.40;;
66380;SDS011;53177;52.648;1.214;2023-12-14T04:17:11;9.63;;;1.90;;
66380;SDS011;53177;52.648;1.214;2023-12-14T04:19:39;7.83;;;2.40;;
66380;SDS011;53177;52.648;1.214;2023-12-14T04:22:05;9.45;;;2.45;;
66380;SDS011;53177;52.648;1.214;2023-12-14T04:24:31;8.50;;;2.53;;
66380;SDS011;53177;52.648;1.214;2023-12-14T04:26:56;7.20;;;2.10;;
66380;SDS011;53177;52.648;1.214;2023-12-14T04:29:21;8.50;;;2.17;;
66380;SDS011;53177;52.648;1.214;2023-12-14T04:31:47;9.67;;;2.30;;
66380;SDS011;53177;52.648;1.214;2023-12-14T04:34:13;6.80;;;2.17;;
66380;SDS011;53177;52.648;1.214;2023-12-14T04:36:41;11.48;;;2.40;;
66380;SDS011;53177;52.648;1.214;2023-12-14T04:39:07;8.65;;;2.47;;
66380;SDS011;53177;52.648;1.214;2023-12-14T04:41:32;7.80;;;2.20;;
66380;SDS011;53177;52.648;1.214;2023-12-14T04:43:58;8.27;;;2.00;;
66380;SDS011;53177;52.648;1.214;2023-12-14T04:46:23;11.43;;;2.30;;
66380;SDS011;53177;52.648;1.214;2023-12-14T04:48:48;6.27;;;1.80;;
66380;SDS011;53177;52.648;1.214;2023-12-14T04:51:14;7.63;;;2.37;;
66380;SDS011;53177;52.648;1.214;2023-12-14T04:53:39;10.40;;;2.10;;
66380;SDS011;53177;52.648;1.214;2023-12-14T04:56:05;6.45;;;1.77;;
66380;SDS011;53177;52.648;1.214;2023-12-14T04:58:34;8.15;;;2.35;;
66380;SDS011;53177;52.648;1.214;2023-12-14T05:00:59;10.13;;;2.07;;
66380;SDS011;53177;52.648;1.214;2023-12-14T05:03:25;6.07;;;1.80;;
66380;SDS011;53177;52.648;1.214;2023-12-14T05:05:50;6.40;;;1.90;;
66380;SDS011;53177;52.648;1.214;2023-12-14T05:08:15;8.70;;;2.07;;
66380;SDS011;53177;52.648;1.214;2023-12-14T05:10:41;7.80;;;1.73;;
66380;SDS011;53177;52.648;1.214;2023-12-14T05:13:06;7.10;;;1.73;;
66380;SDS011;53177;52.648;1.214;2023-12-14T05:15:31;7.07;;;1.90;;
66380;SDS011;53177;52.648;1.214;2023-12-14T05:17:56;6.73;;;2.13;;
66380;SDS011;53177;52.648;1.214;2023-12-14T05:20:22;10.25;;;2.28;;
66380;SDS011;53177;52.648;1.214;2023-12-14T05:22:49;8.23;;;2.20;;
66380;SDS011;53177;52.648;1.214;2023-12-14T05:25:14;7.80;;;2.13;;
66380;SDS011;53177;52.648;1.214;2023-12-14T05:27:40;9.55;;;2.80;;
66380;SDS011;53177;52.648;1.214;2023-12-14T05:30:06;8.30;;;2.80;;
66380;SDS011;53177;52.648;1.214;2023-12-14T05:32:32;8.70;;;2.40;;
66380;SDS011;53177;52.648;1.214;2023-12-14T05:34:57;8.70;;;2.90;;
66380;SDS011;53177;52.648;1.214;2023-12-14T05:37:23;8.75;;;2.60;;
66380;SDS011;53177;52.648;1.214;2023-12-14T05:39:48;7.80;;;2.60;;
66380;SDS011;53177;52.648;1.214;2023-12-14T05:42:17;9.50;;;2.73;;
66380;SDS011;53177;52.648;1.214;2023-12-14T05:44:43;8.10;;;2.60;;
66380;SDS011;53177;52.648;1.214;2023-12-14T05:47:10;12.45;;;2.88;;
66380;SDS011;53177;52.648;1.214;2023-12-14T05:49:35;9.20;;;2.60;;
66380;SDS011;53177;52.648;1.214;2023-12-14T05:52:02;10.50;;;3.33;;
66380;SDS011;53177;52.648;1.214;2023-12-14T05:54:27;11.03;;;3.37;;
66380;SDS011;53177;52.648;1.214;2023-12-14T05:56:53;10.05;;;3.38;;
66380;SDS011;53177;52.648;1.214;2023-12-14T05:59:18;12.60;;;4.10;;
66380;SDS011;53177;52.648;1.214;2023-12-14T06:01:43;9.57;;;3.90;;
66380;SDS011;53177;52.648;1.214;2023-12-14T06:04:09;14.17;;;4.30;;
66380;SDS011;53177;52.648;1.214;2023-12-14T06:06:34;14.37;;;5.00;;
66380;SDS011;53177;52.648;1.214;2023-12-14T06:08:59;10.17;;;4.30;;
66380;SDS011;53177;52.648;1.214;2023-12-14T06:11:25;12.53;;;4.37;;
66380;SDS011;53177;52.648;1.214;2023-12-14T06:13:50;13.03;;;5.50;;
66380;SDS011;53177;52.648;1.214;2023-12-14T06:16:16;15.27;;;5.10;;
66380;SDS011;53177;52.648;1.214;2023-12-14T06:18:41;13.47;;;4.47;;
66380;SDS011;53177;52.648;1.214;2023-12-14T06:21:08;13.50;;;4.82;;
66380;SDS011;53177;52.648;1.214;2023-12-14T06:23:34;13.85;;;5.28;;
66380;SDS011;53177;52.648;1.214;2023-12-14T06:26:01;16.75;;;5.95;;
66380;SDS011;53177;52.648;1.214;2023-12-14T06:28:28;16.60;;;6.28;;
66380;SDS011;53177;52.648;1.214;2023-12-14T06:30:55;14.75;;;5.55;;
66380;SDS011;53177;52.648;1.214;2023-12-14T06:33:21;13.07;;;5.70;;
66380;SDS011;53177;52.648;1.214;2023-12-14T06:35:46;15.80;;;6.13;;
66380;SDS011;53177;52.648;1.214;2023-12-14T06:38:12;16.10;;;6.10;;
66380;SDS011;53177;52.648;1.214;2023-12-14T06:40:40;16.20;;;6.88;;
66380;SDS011;53177;52.648;1.214;2023-12-14T06:43:06;17.77;;;6.67;;
66380;SDS011;53177;52.648;1.214;2023-12-14T06:45:31;16.33;;;7.20;;
66380;SDS011;53177;52.648;1.214;2023-12-14T06:47:56;16.23;;;7.03;;
66380;SDS011;53177;52.648;1.214;2023-12-14T06:50:22;18.13;;;7.60;;
66380;SDS011;53177;52.648;1.214;2023-12-14T06:52:49;24.50;;;8.65;;
66380;SDS011;53177;52.648;1.214;2023-12-14T06:55:14;19.70;;;8.27;;
66380;SDS011;53177;52.648;1.214;2023-12-14T06:57:42;23.33;;;8.97;;
66380;SDS011;53177;52.648;1.214;2023-12-14T07:00:09;20.35;;;8.02;;
66380;SDS011;53177;52.648;1.214;2023-12-14T07:02:34;22.05;;;8.85;;
66380;SDS011;53177;52.648;1.214;2023-12-14T07:05:00;21.57;;;8.70;;
66380;SDS011;53177;52.648;1.214;2023-12-14T07:07:25;23.30;;;9.13;;
66380;SDS011;53177;52.648;1.214;2023-12-14T07:09:50;28.63;;;10.17;;
66380;SDS011;53177;52.648;1.214;2023-12-14T07:12:16;25.45;;;9.82;;
66380;SDS011;53177;52.648;1.214;2023-12-14T07:14:41;24.03;;;9.67;;
66380;SDS011;53177;52.648;1.214;2023-12-14T07:17:07;23.80;;;9.90;;
66380;SDS011;53177;52.648;1.214;2023-12-14T07:19:32;26.73;;;10.10;;
66380;SDS011;53177;52.648;1.214;2023-12-14T07:21:58;26.48;;;9.88;;
66380;SDS011;53177;52.648;1.214;2023-12-14T07:24:23;25.93;;;10.33;;
66380;SDS011;53177;52.648;1.214;2023-12-14T07:26:48;27.47;;;10.77;;
66380;SDS011;53177;52.648;1.214;2023-12-14T07:29:15;26.30;;;10.93;;
66380;SDS011;53177;52.648;1.214;2023-12-14T07:31:40;26.53;;;10.80;;
66380;SDS011;53177;52.648;1.214;2023-12-14T07:34:05;28.83;;;10.70;;
66380;SDS011;53177;52.648;1.214;2023-12-14T07:36:31;24.20;;;10.30;;
66380;SDS011;53177;52.648;1.214;2023-12-14T07:38:56;28.00;;;10.50;;
66380;SDS011;53177;52.648;1.214;2023-12-14T07:41:22;29.60;;;11.98;;
66380;SDS011;53177;52.648;1.214;2023-12-14T07:43:54;29.27;;;10.43;;
66380;SDS011;53177;52.648;1.214;2023-12-14T07:46:21;34.50;;;12.48;;
66380;SDS011;53177;52.648;1.214;2023-12-14T07:48:52;33.55;;;12.25;;
66380;SDS011;53177;52.648;1.214;2023-12-14T07:51:20;34.60;;;13.03;;
66380;SDS011;53177;52.648;1.214;2023-12-14T07:53:52;30.38;;;12.35;;
66380;SDS011;53177;52.648;1.214;2023-12-14T07:56:20;35.80;;;12.45;;
66380;SDS011;53177;52.648;1.214;2023-12-14T07:58:51;30.48;;;11.55;;
66380;SDS011;53177;52.648;1.214;2023-12-14T08:01:18;37.00;;;13.30;;
66380;SDS011;53177;52.648;1.214;2023-12-14T08:03:47;29.17;;;10.63;;
66380;SDS011;53177;52.648;1.214;2023-12-14T08:06:16;36.78;;;13.50;;
66380;SDS011;53177;52.648;1.214;2023-12-14T08:08:47;34.45;;;12.18;;
66380;SDS011;53177;52.648;1.214;2023-12-14T08:11:15;39.00;;;12.95;;
66380;SDS011;53177;52.648;1.214;2023-12-14T08:13:43;38.17;;;12.80;;
66380;SDS011;53177;52.648;1.214;2023-12-14T08:16:13;35.87;;;12.80;;
66380;SDS011;53177;52.648;1.214;2023-12-14T08:18:43;33.65;;;13.00;;
66380;SDS011;53177;52.648;1.214;2023-12-14T08:21:17;36.53;;;13.68;;
66380;SDS011;53177;52.648;1.214;2023-12-14T08:23:45;36.28;;;12.65;;
66380;SDS011;53177;52.648;1.214;2023-12-14T08:26:18;37.97;;;13.63;;
66380;SDS011;53177;52.648;1.214;2023-12-14T08:28:50;42.97;;;14.10;;
66380;SDS011;53177;52.648;1.214;2023-12-14T08:31:18;42.70;;;13.75;;
66380;SDS011;53177;52.648;1.214;2023-12-14T08:33:52;38.17;;;13.25;;
66380;SDS011;53177;52.648;1.214;2023-12-14T08:36:20;37.38;;;14.23;;
66380;SDS011;53177;52.648;1.214;2023-12-14T08:38:51;38.13;;;13.50;;
66380;SDS011;53177;52.648;1.214;2023-12-14T08:41:20;47.90;;;17.17;;
66380;SDS011;53177;52.648;1.214;2023-12-14T08:43:48;43.50;;;15.13;;
66380;SDS011;53177;52.648;1.214;2023-12-14T08:46:16;41.67;;;14.75;;
66380;SDS011;53177;52.648;1.214;2023-12-14T08:48:44;42.35;;;14.82;;
66380;SDS011;53177;52.648;1.214;2023-12-14T08:51:15;43.03;;;15.00;;
66380;SDS011;53177;52.648;1.214;2023-12-14T08:53:43;33.97;;;12.83;;
66380;SDS011;53177;52.648;1.214;2023-12-14T08:56:14;40.60;;;13.05;;
66380;SDS011;53177;52.648;1.214;2023-12-14T08:58:43;34.58;;;12.82;;
66380;SDS011;53177;52.648;1.214;2023-12-14T09:01:17;36.47;;;12.95;;
66380;SDS011;53177;52.648;1.214;2023-12-14T09:03:50;34.75;;;12.38;;
66380;SDS011;53177;52.648;1.214;2023-12-14T09:06:18;34.80;;;12.53;;
66380;SDS011;53177;52.648;1.214;2023-12-14T09:08:46;36.15;;;12.13;;
66380;SDS011;53177;52.648;1.214;2023-12-14T09:11:16;37.75;;;12.52;;
66380;SDS011;53177;52.648;1.214;2023-12-14T09:13:44;39.15;;;13.25;;
66380;SDS011;53177;52.648;1.214;2023-12-14T09:16:11;39.35;;;13.80;;
66380;SDS011;53177;52.648;1.214;2023-12-14T09:18:38;37.60;;;13.13;;
66380;SDS011;53177;52.648;1.214;2023-12-14T09:21:09;29.55;;;12.10;;
66380;SDS011;53177;52.648;1.214;2023-12-14T09:23:36;37.45;;;13.15;;
66380;SDS011;53177;52.648;1.214;2023-12-14T09:26:03;30.90;;;12.43;;
66380;SDS011;53177;52.648;1.214;2023-12-14T09:28:30;33.83;;;11.95;;
66380;SDS011;53177;52.648;1.214;2023-12-14T09:30:58;31.60;;;11.53;;
66380;SDS011;53177;52.648;1.214;2023-12-14T09:33:25;31.55;;;11.82;;
66380;SDS011;53177;52.648;1.214;2023-12-14T09:35:52;36.45;;;10.77;;
66380;SDS011;53177;52.648;1.214;2023-12-14T09:38:23;26.75;;;10.43;;
66380;SDS011;53177;52.648;1.214;2023-12-14T09:40:50;28.23;;;11.40;;
66380;SDS011;53177;52.648;1.214;2023-12-14T09:43:17;29.60;;;11.17;;
66380;SDS011;53177;52.648;1.214;2023-12-14T09:45:46;28.92;;;10.60;;
66380;SDS011;53177;52.648;1.214;2023-12-14T09:48:15;29.83;;;10.05;;
66380;SDS011;53177;52.648;1.214;2023-12-14T09:50:43;29.00;;;10.55;;
66380;SDS011;53177;52.648;1.214;2023-12-14T09:53:10;26.92;;;9.40;;
66380;SDS011;53177;52.648;1.214;2023-12-14T09:55:38;29.07;;;8.97;;
66380;SDS011;53177;52.648;1.214;2023-12-14T09:58:04;26.65;;;8.98;;
66380;SDS011;53177;52.648;1.214;2023-12-14T10:00:35;30.00;;;9.70;;
66380;SDS011;53177;52.648;1.214;2023-12-14T10:05:51;23.65;;;8.65;;
66380;SDS011;53177;52.648;1.214;2023-12-14T10:08:17;23.77;;;8.03;;
66380;SDS011;53177;52.648;1.214;2023-12-14T10:10:44;22.20;;;7.35;;
66380;SDS011;53177;52.648;1.214;2023-12-14T10:13:11;24.92;;;8.27;;
66380;SDS011;53177;52.648;1.214;2023-12-14T10:15:44;22.80;;;7.43;;
66380;SDS011;53177;52.648;1.214;2023-12-14T10:18:10;21.73;;;8.07;;
66380;SDS011;53177;52.648;1.214;2023-12-14T10:20:36;28.07;;;8.10;;
66380;SDS011;53177;52.648;1.214;2023-12-14T10:23:06;23.80;;;7.05;;
66380;SDS011;53177;52.648;1.214;2023-12-14T10:25:32;21.15;;;7.45;;
66380;SDS011;53177;52.648;1.214;2023-12-14T10:27:58;22.27;;;7.57;;
66380;SDS011;53177;52.648;1.214;2023-12-14T10:30:25;25.08;;;7.63;;
66380;SDS011;53177;52.648;1.214;2023-12-14T10:32:53;24.42;;;8.55;;
66380;SDS011;53177;52.648;1.214;2023-12-14T10:35:19;25.60;;;8.27;;
66380;SDS011;53177;52.648;1.214;2023-12-14T10:37:49;23.58;;;8.68;;
66380;SDS011;53177;52.648;1.214;2023-12-14T10:40:17;22.35;;;7.38;;
66380;SDS011;53177;52.648;1.214;2023-12-14T10:42:45;20.20;;;7.43;;
66380;SDS011;53177;52.648;1.214;2023-12-14T10:45:13;42.53;;;21.13;;
66380;SDS011;53177;52.648;1.214;2023-12-14T10:47:44;25.10;;;9.87;;
66380;SDS011;53177;52.648;1.214;2023-12-14T10:50:11;24.20;;;8.38;;
66380;SDS011;53177;52.648;1.214;2023-12-14T10:52:38;19.73;;;7.60;;
66380;SDS011;53177;52.648;1.214;2023-12-14T10:55:15;23.25;;;7.30;;
66380;SDS011;53177;52.648;1.214;2023-12-14T10:57:46;21.52;;;6.93;;
66380;SDS011;53177;52.648;1.214;2023-12-14T11:00:12;23.40;;;8.50;;
66380;SDS011;53177;52.648;1.214;2023-12-14T11:02:45;21.23;;;7.00;;
66380;SDS011;53177;52.648;1.214;2023-12-14T11:05:11;21.93;;;7.67;;
66380;SDS011;53177;52.648;1.214;2023-12-14T11:07:50;19.38;;;6.95;;
66380;SDS011;53177;52.648;1.214;2023-12-14T11:10:23;22.98;;;7.65;;
66380;SDS011;53177;52.648;1.214;2023-12-14T11:15:25;24.55;;;7.65;;
66380;SDS011;53177;52.648;1.214;2023-12-14T11:23:11;22.23;;;7.60;;
66380;SDS011;53177;52.648;1.214;2023-12-14T11:25:42;24.27;;;8.05;;
66380;SDS011;53177;52.648;1.214;2023-12-14T11:28:07;21.33;;;6.77;;
66380;SDS011;53177;52.648;1.214;2023-12-14T11:30:33;22.38;;;9.75;;
66380;SDS011;53177;52.648;1.214;2023-12-14T11:33:01;21.90;;;7.67;;
66380;SDS011;53177;52.648;1.214;2023-12-14T11:35:27;18.02;;;6.20;;
66380;SDS011;53177;52.648;1.214;2023-12-14T11:37:52;20.57;;;6.37;;
66380;SDS011;53177;52.648;1.214;2023-12-14T11:40:19;16.50;;;6.30;;
66380;SDS011;53177;52.648;1.214;2023-12-14T11:43:00;16.57;;;5.27;;
66380;SDS011;53177;52.648;1.214;2023-12-14T11:45:37;17.40;;;7.25;;
66380;SDS011;53177;52.648;1.214;2023-12-14T11:48:05;15.85;;;5.22;;
66380;SDS011;53177;52.648;1.214;2023-12-14T11:50:33;11.48;;;4.45;;
66380;SDS011;53177;52.648;1.214;2023-12-14T11:53:02;15.63;;;5.00;;
66380;SDS011;53177;52.648;1.214;2023-12-14T11:55:29;14.67;;;5.60;;
66380;SDS011;53177;52.648;1.214;2023-12-14T11:57:58;15.13;;;4.75;;
66380;SDS011;53177;52.648;1.214;2023-12-14T12:00:27;12.02;;;5.90;;
66380;SDS011;53177;52.648;1.214;2023-12-14T12:05:47;14.47;;;5.03;;
66380;SDS011;53177;52.648;1.214;2023-12-14T12:08:16;16.75;;;5.57;;
66380;SDS011;53177;52.648;1.214;2023-12-14T12:10:44;19.48;;;6.80;;
66380;SDS011;53177;52.648;1.214;2023-12-14T12:13:11;33.92;;;18.60;;
66380;SDS011;53177;52.648;1.214;2023-12-14T12:15:38;54.72;;;28.30;;
66380;SDS011;53177;52.648;1.214;2023-12-14T12:18:08;17.73;;;6.53;;
66380;SDS011;53177;52.648;1.214;2023-12-14T12:20:34;19.90;;;9.50;;
66380;SDS011;53177;52.648;1.214;2023-12-14T12:23:00;18.43;;;8.73;;
66380;SDS011;53177;52.648;1.214;2023-12-14T12:25:26;18.67;;;7.93;;
66380;SDS011;53177;52.648;1.214;2023-12-14T12:27:53;27.85;;;16.30;;
66380;SDS011;53177;52.648;1.214;2023-12-14T12:30:19;27.23;;;13.57;;
66380;SDS011;53177;52.648;1.214;2023-12-14T12:32:46;11.77;;;4.05;;
66380;SDS011;53177;52.648;1.214;2023-12-14T12:35:12;9.73;;;3.30;;
66380;SDS011;53177;52.648;1.214;2023-12-14T12:37:38;13.10;;;4.87;;
66380;SDS011;53177;52.648;1.214;2023-12-14T12:40:04;16.27;;;8.73;;
66380;SDS011;53177;52.648;1.214;2023-12-14T12:42:30;14.77;;;6.82;;
66380;SDS011;53177;52.648;1.214;2023-12-14T12:44:56;12.13;;;4.23;;
66380;SDS011;53177;52.648;1.214;2023-12-14T12:47:21;14.87;;;6.53;;
66380;SDS011;53177;52.648;1.214;2023-12-14T12:49:46;13.43;;;5.70;;
66380;SDS011;53177;52.648;1.214;2023-12-14T12:52:12;13.80;;;5.87;;
66380;SDS011;53177;52.648;1.214;2023-12-14T12:54:37;10.87;;;4.00;;
66380;SDS011;53177;52.648;1.214;2023-12-14T12:57:02;12.75;;;4.85;;
66380;SDS011;53177;52.648;1.214;2023-12-14T12:59:28;10.80;;;3.90;;
66380;SDS011;53177;52.648;1.214;2023-12-14T13:01:53;13.73;;;5.17;;
66380;SDS011;53177;52.648;1.214;2023-12-14T13:04:22;13.00;;;4.10;;
66380;SDS011;53177;52.648;1.214;2023-12-14T13:06:48;12.30;;;5.07;;
66380;SDS011;53177;52.648;1.214;2023-12-14T13:09:14;17.33;;;8.57;;
66380;SDS011;53177;52.648;1.214;2023-12-14T13:11:41;13.93;;;5.75;;
66380;SDS011;53177;52.648;1.214;2023-12-14T13:14:10;10.10;;;4.23;;
66380;SDS011;53177;52.648;1.214;2023-12-14T13:16:35;10.10;;;3.88;;
66380;SDS011;53177;52.648;1.214;2023-12-14T13:19:02;12.13;;;4.27;;
66380;SDS011;53177;52.648;1.214;2023-12-14T13:21:28;11.27;;;3.70;;
66380;SDS011;53177;52.648;1.214;2023-12-14T13:23:54;11.68;;;4.40;;
66380;SDS011;53177;52.648;1.214;2023-12-14T13:26:21;10.10;;;4.13;;
66380;SDS011;53177;52.648;1.214;2023-12-14T13:28:47;14.20;;;5.50;;
66380;SDS011;53177;52.648;1.214;2023-12-14T13:31:12;9.37;;;4.00;;
66380;SDS011;53177;52.648;1.214;2023-12-14T13:33:37;13.10;;;5.10;;
66380;SDS011;53177;52.648;1.214;2023-12-14T13:36:03;15.63;;;6.97;;
66380;SDS011;53177;52.648;1.214;2023-12-14T13:38:29;16.83;;;7.17;;
66380;SDS011;53177;52.648;1.214;2023-12-14T13:40:55;11.63;;;4.93;;
66380;SDS011;53177;52.648;1.214;2023-12-14T13:43:20;14.20;;;5.03;;
66380;SDS011;53177;52.648;1.214;2023-12-14T13:45:45;14.07;;;6.37;;
66380;SDS011;53177;52.648;1.214;2023-12-14T13:48:11;13.60;;;5.27;;
66380;SDS011;53177;52.648;1.214;2023-12-14T13:50:36;26.50;;;12.10;;
66380;SDS011;53177;52.648;1.214;2023-12-14T13:53:01;15.18;;;6.78;;
66380;SDS011;53177;52.648;1.214;2023-12-14T13:55:27;14.73;;;6.23;;
66380;SDS011;53177;52.648;1.214;2023-12-14T13:57:53;20.47;;;8.13;;
66380;SDS011;53177;52.648;1.214;2023-12-14T14:00:18;17.90;;;6.50;;
66380;SDS011;53177;52.648;1.214;2023-12-14T14:02:46;82.35;;;41.72;;
66380;SDS011;53177;52.648;1.214;2023-12-14T14:05:12;26.50;;;12.77;;
66380;SDS011;53177;52.648;1.214;2023-12-14T14:07:37;19.57;;;9.50;;
66380;SDS011;53177;52.648;1.214;2023-12-14T14:10:02;23.00;;;11.27;;
66380;SDS011;53177;52.648;1.214;2023-12-14T14:12:28;17.77;;;7.45;;
66380;SDS011;53177;52.648;1.214;2023-12-14T14:14:53;17.83;;;6.43;;
66380;SDS011;53177;52.648;1.214;2023-12-14T14:17:18;20.53;;;8.83;;
66380;SDS011;53177;52.648;1.214;2023-12-14T14:19:44;18.50;;;7.73;;
66380;SDS011;53177;52.648;1.214;2023-12-14T14:22:09;17.90;;;6.67;;
66380;SDS011;53177;52.648;1.214;2023-12-14T14:24:34;21.08;;;9.07;;
66380;SDS011;53177;52.648;1.214;2023-12-14T14:27:00;19.27;;;8.18;;
66380;SDS011;53177;52.648;1.214;2023-12-14T14:29:26;14.60;;;5.97;;
66380;SDS011;53177;52.648;1.214;2023-12-14T14:31:51;19.90;;;6.70;;
66380;SDS011;53177;52.648;1.214;2023-12-14T14:34:16;16.20;;;6.63;;
66380;SDS011;53177;52.648;1.214;2023-12-14T14:36:42;17.43;;;6.47;;
66380;SDS011;53177;52.648;1.214;2023-12-14T14:39:09;23.58;;;8.15;;
66380;SDS011;53177;52.648;1.214;2023-12-14T14:41:35;21.27;;;6.20;;
66380;SDS011;53177;52.648;1.214;2023-12-14T14:44:00;24.23;;;7.17;;
66380;SDS011;53177;52.648;1.214;2023-12-14T14:46:26;15.30;;;6.20;;